Last 30 Days

OV-Red Dog 6200'

Daily Data | America/Los_Angeles
as of 2/24/24 12:37 AM PST
Date Daily Max Temp (°F) Time of Max Temp Daily Min Temp (°F) Time of Min Temp Daily Rain (In) New Snow (in) SnowDepth (in) Wind Spd (mph) Daily Max Wind (mph) Time of Max Wind Max Wind Dir (°) Max RH (%) Min RH (%) Wet Bulb (°F) WetB Hrs <28F (hrs) MinBV Day (V)
2/23/24 46.6 1335 18.2 0656 0.00 51.5 134.1 1.0 6.4 1123 SE | 140 98 48 - - 13.0
2/22/24 43.6 1411 16.5 0642 0.00 50.8 154.8 1.2 10.2 1332 NNW | 339 97 40 26.1 - 13.0
2/21/24 39.6 1545 21.9 2343 0.00 50.4 169.1 1.6 18.0 1451 NNW | 348 99 62 29.8 15.2 13.0
2/20/24 40.0 1421 30.7 2014 0.00 50.2 181.4 5.4 24.0 0748 NNE | 18 99 64 31.7 0.0 13.0
2/19/24 37.5 1128 32.2 0935 0.00 51.4 188.0 5.9 33.4 0552 ENE | 74 99 70 33.2 0.0 12.9
2/18/24 45.1 1443 32.7 0106 0.00 46.9 198.4 7.6 32.8 1847 NNE | 27 99 44 34.9 0.0 13.0
2/17/24 43.7 1118 29.3 0655 0.00 12.4 107.0 4.0 23.0 2241 NNE | 25 99 37 33.0 0.0 13.0
2/16/24 43.0 1253 25.7 0328 0.00 - 121.5 1.2 5.6 1748 NW | 310 100 65 32.0 23.5 13.0
2/15/24 39.7 1256 26.9 2012 0.00 - 140.7 5.5 24.6 0102 NNE | 19 98 68 30.1 15.6 13.0
2/14/24 36.0 1338 28.9 0001 0.00 - - 8.3 30.6 1148 NNE | 16 99 54 31.1 0.2 13.0
2/13/24 43.0 1137 20.4 0553 0.00 - 90.3 4.4 19.4 1449 N | 0 91 35 28.3 - 13.0
2/12/24 50.7 1310 16.9 0535 0.00 - 130.8 1.3 10.3 1632 NNW | 337 94 26 - - 13.0
2/11/24 46.5 1510 11.4 0537 0.00 0.7 121.2 0.9 6.8 1621 WNW | 290 97 41 24.4 - 13.0
2/10/24 40.8 1354 11.7 0515 0.00 31.2 156.3 1.4 12.1 1003 SSW | 203 94 41 - - 13.0
2/9/24 33.3 1412 13.4 0206 0.00 42.6 164.7 3.0 17.6 1925 SSW | 196 95 56 22.7 - 13.0
2/8/24 32.9 1255 16.9 2347 0.00 39.4 187.3 2.6 12.1 1445 NW | 322 96 63 24.0 - 13.0
2/7/24 31.1 1434 22.0 0133 0.00 39.4 182.9 4.0 23.5 0946 NNE | 20 97 77 26.2 - 13.0
2/6/24 41.0 1341 24.1 0001 0.00 40.1 171.4 1.5 8.0 1411 NW | 317 99 65 - 17.3 13.0
2/5/24 34.9 1249 29.4 2207 0.00 39.4 181.9 4.7 25.2 0046 NNE | 26 98 73 31.0 0.0 13.0
2/4/24 39.9 1722 26.7 0259 0.00 40.0 192.4 4.9 33.3 2010 N | 11 100 65 - 23.3 13.0
2/3/24 32.5 1510 17.2 0749 0.00 43.6 109.6 3.2 16.8 0126 NNW | 347 95 63 23.8 - 13.0
2/2/24 32.6 1320 23.8 2105 0.00 37.0 161.5 3.6 23.7 2309 NNE | 22 97 75 27.2 - 13.0
2/1/24 37.2 0210 28.5 2306 0.00 47.1 201.3 3.6 16.6 0001 N | 0 99 70 - 2.8 13.0
1/31/24 48.3 0040 35.1 1741 0.00 48.0 195.6 7.2 24.6 0645 NW | 324 96 36 36.8 0.0 13.0
1/30/24 55.7 1425 29.3 0342 0.00 54.8 207.0 3.0 18.6 1908 NNE | 14 99 39 - 0.0 13.0
1/29/24 59.4 1314 28.2 0649 0.00 54.0 212.5 1.2 9.5 1410 NNW | 346 99 32 - 0.5 13.0
1/28/24 57.3 1324 31.0 2348 0.00 74.0 217.3 1.1 7.0 1252 WNW | 303 98 45 - 0.0 13.0
1/27/24 51.6 1438 31.2 0721 0.00 24.3 229.6 1.0 6.0 1436 WNW | 299 100 0 37.4 0.0 13.0
1/26/24 47.2 1227 25.6 0001 0.00 0.8 212.7 1.4 14.6 1304 NW | 314 98 48 34.4 13.5 13.0
1/25/24 41.3 1433 24.7 2343 0.00 - 236.2 4.0 25.2 0157 NNW | 346 98 54 - 20.3 13.0
Max 59.4 - 35.1 - 0.00 74.0 236.2 8.3 33.4 - - 100 77 37.4 23.5 13.0
Avg - - - - - - - 3.3 - - - - - 29.9 - -
Min 31.1 - 11.4 - 0.00 0.7 90.3 0.9 5.6 - - 91 0 22.7 0.0 12.9